sensor_id;sensor_type;location;lat;lon;timestamp;temperature;humidity
5901;DHT22;2976;49.764;9.796;2023-03-31T00:02:03;9.50;99.90
5901;DHT22;2976;49.764;9.796;2023-03-31T00:04:41;9.60;99.90
5901;DHT22;2976;49.764;9.796;2023-03-31T00:07:13;9.50;99.90
5901;DHT22;2976;49.764;9.796;2023-03-31T00:09:40;9.60;99.90
5901;DHT22;2976;49.764;9.796;2023-03-31T00:12:11;9.60;99.90
5901;DHT22;2976;49.764;9.796;2023-03-31T00:14:39;9.60;99.90
5901;DHT22;2976;49.764;9.796;2023-03-31T00:17:06;9.70;99.90
5901;DHT22;2976;49.764;9.796;2023-03-31T00:19:32;9.70;99.90
5901;DHT22;2976;49.764;9.796;2023-03-31T00:21:58;9.70;99.90
5901;DHT22;2976;49.764;9.796;2023-03-31T00:24:30;9.60;99.90
5901;DHT22;2976;49.764;9.796;2023-03-31T00:26:58;9.60;99.90
5901;DHT22;2976;49.764;9.796;2023-03-31T00:29:24;9.50;99.90
5901;DHT22;2976;49.764;9.796;2023-03-31T00:31:50;9.60;99.90
5901;DHT22;2976;49.764;9.796;2023-03-31T00:34:16;9.60;99.90
5901;DHT22;2976;49.764;9.796;2023-03-31T00:36:41;9.60;99.90
5901;DHT22;2976;49.764;9.796;2023-03-31T00:39:13;9.70;99.90
5901;DHT22;2976;49.764;9.796;2023-03-31T00:41:39;9.70;99.90
5901;DHT22;2976;49.764;9.796;2023-03-31T00:47:24;9.80;99.90
5901;DHT22;2976;49.764;9.796;2023-03-31T00:54:58;9.70;99.90
5901;DHT22;2976;49.764;9.796;2023-03-31T00:57:26;9.60;99.90
5901;DHT22;2976;49.764;9.796;2023-03-31T00:59:56;9.60;99.90
5901;DHT22;2976;49.764;9.796;2023-03-31T01:02:23;9.60;99.90
5901;DHT22;2976;49.764;9.796;2023-03-31T01:04:52;9.60;99.90
5901;DHT22;2976;49.764;9.796;2023-03-31T01:07:45;9.60;99.90
5901;DHT22;2976;49.764;9.796;2023-03-31T01:10:12;9.60;99.90
5901;DHT22;2976;49.764;9.796;2023-03-31T01:12:41;9.60;99.90
5901;DHT22;2976;49.764;9.796;2023-03-31T01:15:09;9.70;99.90
5901;DHT22;2976;49.764;9.796;2023-03-31T01:17:35;9.70;99.90
5901;DHT22;2976;49.764;9.796;2023-03-31T01:23:25;9.70;99.90
5901;DHT22;2976;49.764;9.796;2023-03-31T01:37:17;9.70;99.90
5901;DHT22;2976;49.764;9.796;2023-03-31T01:47:51;9.70;99.90
5901;DHT22;2976;49.764;9.796;2023-03-31T01:50:34;9.70;99.90
5901;DHT22;2976;49.764;9.796;2023-03-31T01:53:04;9.60;99.90
5901;DHT22;2976;49.764;9.796;2023-03-31T01:55:39;9.60;99.90
5901;DHT22;2976;49.764;9.796;2023-03-31T01:58:11;9.60;99.90
5901;DHT22;2976;49.764;9.796;2023-03-31T02:00:46;9.60;99.90
5901;DHT22;2976;49.764;9.796;2023-03-31T02:03:23;9.60;99.90
5901;DHT22;2976;49.764;9.796;2023-03-31T02:05:54;9.70;99.90
5901;DHT22;2976;49.764;9.796;2023-03-31T02:08:25;9.70;99.90
5901;DHT22;2976;49.764;9.796;2023-03-31T02:10:54;9.60;99.90
5901;DHT22;2976;49.764;9.796;2023-03-31T02:13:21;9.60;99.90
5901;DHT22;2976;49.764;9.796;2023-03-31T02:15:52;9.60;99.90
5901;DHT22;2976;49.764;9.796;2023-03-31T02:18:21;9.60;99.90
5901;DHT22;2976;49.764;9.796;2023-03-31T02:20:51;9.70;99.90
5901;DHT22;2976;49.764;9.796;2023-03-31T02:23:23;9.70;99.90
5901;DHT22;2976;49.764;9.796;2023-03-31T02:25:53;9.70;99.90
5901;DHT22;2976;49.764;9.796;2023-03-31T02:28:24;9.80;99.90
5901;DHT22;2976;49.764;9.796;2023-03-31T02:33:41;9.90;99.90
5901;DHT22;2976;49.764;9.796;2023-03-31T02:36:06;9.90;99.90
5901;DHT22;2976;49.764;9.796;2023-03-31T02:38:36;9.90;99.90
5901;DHT22;2976;49.764;9.796;2023-03-31T02:41:04;9.90;99.90
5901;DHT22;2976;49.764;9.796;2023-03-31T02:43:30;10.00;99.90
5901;DHT22;2976;49.764;9.796;2023-03-31T02:45:55;10.00;99.90
5901;DHT22;2976;49.764;9.796;2023-03-31T02:53:42;10.10;99.90
5901;DHT22;2976;49.764;9.796;2023-03-31T02:59:24;9.90;99.90
5901;DHT22;2976;49.764;9.796;2023-03-31T03:02:06;9.80;99.90
5901;DHT22;2976;49.764;9.796;2023-03-31T03:04:56;9.70;99.90
5901;DHT22;2976;49.764;9.796;2023-03-31T03:10:26;9.60;99.90
5901;DHT22;2976;49.764;9.796;2023-03-31T03:13:15;9.50;99.90
5901;DHT22;2976;49.764;9.796;2023-03-31T03:15:59;9.50;99.90
5901;DHT22;2976;49.764;9.796;2023-03-31T03:18:25;9.60;99.90
5901;DHT22;2976;49.764;9.796;2023-03-31T03:20:51;9.60;99.90
5901;DHT22;2976;49.764;9.796;2023-03-31T03:23:17;9.60;99.90
5901;DHT22;2976;49.764;9.796;2023-03-31T03:25:43;9.60;99.90
5901;DHT22;2976;49.764;9.796;2023-03-31T03:28:09;9.60;99.90
5901;DHT22;2976;49.764;9.796;2023-03-31T03:30:35;9.70;99.90
5901;DHT22;2976;49.764;9.796;2023-03-31T03:33:00;9.70;99.90
5901;DHT22;2976;49.764;9.796;2023-03-31T03:35:27;9.60;99.90
5901;DHT22;2976;49.764;9.796;2023-03-31T03:37:53;9.70;99.90
5901;DHT22;2976;49.764;9.796;2023-03-31T03:40:18;9.70;99.90
5901;DHT22;2976;49.764;9.796;2023-03-31T03:42:44;9.60;99.90
5901;DHT22;2976;49.764;9.796;2023-03-31T03:45:10;9.50;99.90
5901;DHT22;2976;49.764;9.796;2023-03-31T03:47:35;9.50;99.90
5901;DHT22;2976;49.764;9.796;2023-03-31T03:50:02;9.50;99.90
5901;DHT22;2976;49.764;9.796;2023-03-31T03:52:28;9.50;99.90
5901;DHT22;2976;49.764;9.796;2023-03-31T03:54:54;9.50;99.90
5901;DHT22;2976;49.764;9.796;2023-03-31T03:57:20;9.40;99.90
5901;DHT22;2976;49.764;9.796;2023-03-31T03:59:45;9.40;99.90
5901;DHT22;2976;49.764;9.796;2023-03-31T04:02:11;9.30;99.90
5901;DHT22;2976;49.764;9.796;2023-03-31T04:04:37;9.30;99.90
5901;DHT22;2976;49.764;9.796;2023-03-31T04:07:02;9.20;99.90
5901;DHT22;2976;49.764;9.796;2023-03-31T04:09:28;9.20;99.90
5901;DHT22;2976;49.764;9.796;2023-03-31T04:11:53;9.20;99.90
5901;DHT22;2976;49.764;9.796;2023-03-31T04:14:19;9.30;99.90
5901;DHT22;2976;49.764;9.796;2023-03-31T04:16:45;9.20;99.90
5901;DHT22;2976;49.764;9.796;2023-03-31T04:19:12;9.20;99.90
5901;DHT22;2976;49.764;9.796;2023-03-31T04:21:39;9.30;99.90
5901;DHT22;2976;49.764;9.796;2023-03-31T04:24:09;9.30;99.90
5901;DHT22;2976;49.764;9.796;2023-03-31T04:26:37;9.40;99.90
5901;DHT22;2976;49.764;9.796;2023-03-31T04:29:12;9.30;99.90
5901;DHT22;2976;49.764;9.796;2023-03-31T04:31:39;9.30;99.90
5901;DHT22;2976;49.764;9.796;2023-03-31T04:34:11;9.30;99.90
5901;DHT22;2976;49.764;9.796;2023-03-31T04:36:41;9.30;99.90
5901;DHT22;2976;49.764;9.796;2023-03-31T04:39:08;9.30;99.90
5901;DHT22;2976;49.764;9.796;2023-03-31T04:41:36;9.30;99.90
5901;DHT22;2976;49.764;9.796;2023-03-31T04:44:02;9.20;99.90
5901;DHT22;2976;49.764;9.796;2023-03-31T04:46:27;9.20;99.90
5901;DHT22;2976;49.764;9.796;2023-03-31T04:48:53;9.20;99.90
5901;DHT22;2976;49.764;9.796;2023-03-31T04:51:18;9.30;99.90
5901;DHT22;2976;49.764;9.796;2023-03-31T04:53:45;9.30;99.90
5901;DHT22;2976;49.764;9.796;2023-03-31T04:56:11;9.20;99.90
5901;DHT22;2976;49.764;9.796;2023-03-31T04:58:37;9.30;99.90
5901;DHT22;2976;49.764;9.796;2023-03-31T05:01:03;9.20;99.90
5901;DHT22;2976;49.764;9.796;2023-03-31T05:03:31;9.20;99.90
5901;DHT22;2976;49.764;9.796;2023-03-31T05:05:56;9.20;99.90
5901;DHT22;2976;49.764;9.796;2023-03-31T05:08:22;9.20;99.90
5901;DHT22;2976;49.764;9.796;2023-03-31T05:10:48;9.30;99.90
5901;DHT22;2976;49.764;9.796;2023-03-31T05:13:13;9.30;99.90
5901;DHT22;2976;49.764;9.796;2023-03-31T05:15:39;9.20;99.90
5901;DHT22;2976;49.764;9.796;2023-03-31T05:18:06;9.30;99.90
5901;DHT22;2976;49.764;9.796;2023-03-31T05:20:32;9.20;99.90
5901;DHT22;2976;49.764;9.796;2023-03-31T05:22:58;9.30;99.90
5901;DHT22;2976;49.764;9.796;2023-03-31T05:25:23;9.30;99.90
5901;DHT22;2976;49.764;9.796;2023-03-31T05:27:49;9.30;99.90
5901;DHT22;2976;49.764;9.796;2023-03-31T05:30:16;9.30;99.90
5901;DHT22;2976;49.764;9.796;2023-03-31T05:32:42;9.30;99.90
5901;DHT22;2976;49.764;9.796;2023-03-31T05:35:09;9.40;99.90
5901;DHT22;2976;49.764;9.796;2023-03-31T05:37:35;9.30;99.90
5901;DHT22;2976;49.764;9.796;2023-03-31T05:40:01;9.40;99.90
5901;DHT22;2976;49.764;9.796;2023-03-31T05:42:29;9.40;99.90
5901;DHT22;2976;49.764;9.796;2023-03-31T05:44:54;9.30;99.90
5901;DHT22;2976;49.764;9.796;2023-03-31T05:47:20;9.30;99.90
5901;DHT22;2976;49.764;9.796;2023-03-31T05:49:47;9.30;99.90
5901;DHT22;2976;49.764;9.796;2023-03-31T05:52:13;9.30;99.90
5901;DHT22;2976;49.764;9.796;2023-03-31T05:54:38;9.20;99.90
5901;DHT22;2976;49.764;9.796;2023-03-31T05:57:05;9.10;99.90
5901;DHT22;2976;49.764;9.796;2023-03-31T05:59:30;9.20;99.90
5901;DHT22;2976;49.764;9.796;2023-03-31T06:01:56;9.10;99.90
5901;DHT22;2976;49.764;9.796;2023-03-31T06:04:22;9.10;99.90
5901;DHT22;2976;49.764;9.796;2023-03-31T06:06:48;9.10;99.90
5901;DHT22;2976;49.764;9.796;2023-03-31T06:09:15;9.10;99.90
5901;DHT22;2976;49.764;9.796;2023-03-31T06:11:41;9.10;99.90
5901;DHT22;2976;49.764;9.796;2023-03-31T06:14:06;9.10;99.90
5901;DHT22;2976;49.764;9.796;2023-03-31T06:16:32;9.10;99.90
5901;DHT22;2976;49.764;9.796;2023-03-31T06:18:57;9.00;99.90
5901;DHT22;2976;49.764;9.796;2023-03-31T06:21:23;9.00;99.90
5901;DHT22;2976;49.764;9.796;2023-03-31T06:23:48;9.00;99.90
5901;DHT22;2976;49.764;9.796;2023-03-31T06:26:16;9.10;99.90
5901;DHT22;2976;49.764;9.796;2023-03-31T06:28:43;9.10;99.90
5901;DHT22;2976;49.764;9.796;2023-03-31T06:31:11;9.00;99.90
5901;DHT22;2976;49.764;9.796;2023-03-31T06:33:38;9.10;99.90
5901;DHT22;2976;49.764;9.796;2023-03-31T06:36:05;9.10;99.90
5901;DHT22;2976;49.764;9.796;2023-03-31T06:38:35;9.10;99.90
5901;DHT22;2976;49.764;9.796;2023-03-31T06:41:01;9.10;99.90
5901;DHT22;2976;49.764;9.796;2023-03-31T06:43:27;9.10;99.90
5901;DHT22;2976;49.764;9.796;2023-03-31T06:45:53;9.10;99.90
5901;DHT22;2976;49.764;9.796;2023-03-31T06:48:19;9.10;99.90
5901;DHT22;2976;49.764;9.796;2023-03-31T06:50:45;9.10;99.90
5901;DHT22;2976;49.764;9.796;2023-03-31T06:53:11;9.10;99.90
5901;DHT22;2976;49.764;9.796;2023-03-31T06:55:36;9.10;99.90
5901;DHT22;2976;49.764;9.796;2023-03-31T06:58:03;9.20;99.90
5901;DHT22;2976;49.764;9.796;2023-03-31T07:00:31;9.20;99.90
5901;DHT22;2976;49.764;9.796;2023-03-31T07:02:57;9.30;99.90
5901;DHT22;2976;49.764;9.796;2023-03-31T07:05:23;9.30;99.90
5901;DHT22;2976;49.764;9.796;2023-03-31T07:07:53;9.30;99.90
5901;DHT22;2976;49.764;9.796;2023-03-31T07:10:19;9.30;99.90
5901;DHT22;2976;49.764;9.796;2023-03-31T07:12:45;9.30;99.90
5901;DHT22;2976;49.764;9.796;2023-03-31T07:15:10;9.40;99.90
5901;DHT22;2976;49.764;9.796;2023-03-31T07:17:36;9.40;99.90
5901;DHT22;2976;49.764;9.796;2023-03-31T07:20:03;9.40;99.90
5901;DHT22;2976;49.764;9.796;2023-03-31T07:22:33;9.30;99.90
5901;DHT22;2976;49.764;9.796;2023-03-31T07:24:59;9.30;99.90
5901;DHT22;2976;49.764;9.796;2023-03-31T07:27:25;9.40;99.90
5901;DHT22;2976;49.764;9.796;2023-03-31T07:29:50;9.40;99.90
5901;DHT22;2976;49.764;9.796;2023-03-31T07:32:16;9.30;99.90
5901;DHT22;2976;49.764;9.796;2023-03-31T07:34:41;9.40;99.90
5901;DHT22;2976;49.764;9.796;2023-03-31T07:37:07;9.40;99.90
5901;DHT22;2976;49.764;9.796;2023-03-31T07:39:34;9.40;99.90
5901;DHT22;2976;49.764;9.796;2023-03-31T07:42:01;9.40;99.90
5901;DHT22;2976;49.764;9.796;2023-03-31T07:44:26;9.50;99.90
5901;DHT22;2976;49.764;9.796;2023-03-31T07:46:52;9.50;99.90
5901;DHT22;2976;49.764;9.796;2023-03-31T07:49:17;9.60;99.90
5901;DHT22;2976;49.764;9.796;2023-03-31T07:51:43;9.60;99.90
5901;DHT22;2976;49.764;9.796;2023-03-31T07:54:08;9.60;99.90
5901;DHT22;2976;49.764;9.796;2023-03-31T07:56:34;9.60;99.90
5901;DHT22;2976;49.764;9.796;2023-03-31T07:59:00;9.70;99.90
5901;DHT22;2976;49.764;9.796;2023-03-31T08:01:25;9.70;99.90
5901;DHT22;2976;49.764;9.796;2023-03-31T08:03:53;9.80;99.90
5901;DHT22;2976;49.764;9.796;2023-03-31T08:06:22;9.80;99.90
5901;DHT22;2976;49.764;9.796;2023-03-31T08:08:49;9.90;99.90
5901;DHT22;2976;49.764;9.796;2023-03-31T08:11:15;9.90;99.90
5901;DHT22;2976;49.764;9.796;2023-03-31T08:13:40;9.90;99.90
5901;DHT22;2976;49.764;9.796;2023-03-31T08:16:06;10.10;99.90
5901;DHT22;2976;49.764;9.796;2023-03-31T08:18:32;10.20;99.90
5901;DHT22;2976;49.764;9.796;2023-03-31T08:20:57;10.20;99.90
5901;DHT22;2976;49.764;9.796;2023-03-31T08:23:23;10.10;99.90
5901;DHT22;2976;49.764;9.796;2023-03-31T08:25:48;10.00;99.90
5901;DHT22;2976;49.764;9.796;2023-03-31T08:28:14;10.10;99.90
5901;DHT22;2976;49.764;9.796;2023-03-31T08:30:40;10.10;99.90
5901;DHT22;2976;49.764;9.796;2023-03-31T08:33:06;10.20;99.90
5901;DHT22;2976;49.764;9.796;2023-03-31T08:35:35;10.30;99.90
5901;DHT22;2976;49.764;9.796;2023-03-31T08:38:01;10.30;99.90
5901;DHT22;2976;49.764;9.796;2023-03-31T08:40:28;10.30;99.90
5901;DHT22;2976;49.764;9.796;2023-03-31T08:43:01;10.30;99.90
5901;DHT22;2976;49.764;9.796;2023-03-31T08:45:35;10.30;99.90
5901;DHT22;2976;49.764;9.796;2023-03-31T08:48:06;10.30;99.90
5901;DHT22;2976;49.764;9.796;2023-03-31T08:50:44;10.60;99.90
5901;DHT22;2976;49.764;9.796;2023-03-31T08:53:29;10.90;99.90
5901;DHT22;2976;49.764;9.796;2023-03-31T08:55:57;11.10;99.90
5901;DHT22;2976;49.764;9.796;2023-03-31T08:58:35;11.50;99.90
5901;DHT22;2976;49.764;9.796;2023-03-31T09:06:55;12.00;99.90
5901;DHT22;2976;49.764;9.796;2023-03-31T09:09:43;11.70;99.90
5901;DHT22;2976;49.764;9.796;2023-03-31T09:12:22;11.30;99.90
5901;DHT22;2976;49.764;9.796;2023-03-31T09:15:03;10.90;99.90
5901;DHT22;2976;49.764;9.796;2023-03-31T09:17:39;10.80;99.90
5901;DHT22;2976;49.764;9.796;2023-03-31T09:20:17;10.70;99.90
5901;DHT22;2976;49.764;9.796;2023-03-31T09:22:51;10.80;99.90
5901;DHT22;2976;49.764;9.796;2023-03-31T09:25:18;11.00;99.90
5901;DHT22;2976;49.764;9.796;2023-03-31T09:27:45;11.50;99.90
5901;DHT22;2976;49.764;9.796;2023-03-31T09:30:27;11.80;99.90
5901;DHT22;2976;49.764;9.796;2023-03-31T09:33:27;11.80;99.90
5901;DHT22;2976;49.764;9.796;2023-03-31T09:35:59;11.60;99.90
5901;DHT22;2976;49.764;9.796;2023-03-31T09:38:25;11.20;99.90
5901;DHT22;2976;49.764;9.796;2023-03-31T09:40:59;10.70;99.90
5901;DHT22;2976;49.764;9.796;2023-03-31T09:43:28;10.10;99.90
5901;DHT22;2976;49.764;9.796;2023-03-31T09:45:54;9.60;99.90
5901;DHT22;2976;49.764;9.796;2023-03-31T09:48:27;9.30;99.90
5901;DHT22;2976;49.764;9.796;2023-03-31T09:51:05;9.20;99.90
5901;DHT22;2976;49.764;9.796;2023-03-31T09:53:49;9.20;99.90
5901;DHT22;2976;49.764;9.796;2023-03-31T09:59:17;9.20;99.90
5901;DHT22;2976;49.764;9.796;2023-03-31T10:01:45;9.20;99.90
5901;DHT22;2976;49.764;9.796;2023-03-31T10:04:18;9.30;99.90
5901;DHT22;2976;49.764;9.796;2023-03-31T10:06:45;9.20;99.90
5901;DHT22;2976;49.764;9.796;2023-03-31T10:09:11;9.20;99.90
5901;DHT22;2976;49.764;9.796;2023-03-31T10:11:37;9.30;99.90
5901;DHT22;2976;49.764;9.796;2023-03-31T10:14:10;9.40;99.90
5901;DHT22;2976;49.764;9.796;2023-03-31T10:16:49;9.40;99.90
5901;DHT22;2976;49.764;9.796;2023-03-31T10:19:31;9.50;99.90
5901;DHT22;2976;49.764;9.796;2023-03-31T10:21:58;9.40;99.90
5901;DHT22;2976;49.764;9.796;2023-03-31T10:24:24;9.40;99.90
5901;DHT22;2976;49.764;9.796;2023-03-31T10:26:53;9.40;99.90
5901;DHT22;2976;49.764;9.796;2023-03-31T10:29:30;9.20;99.90
5901;DHT22;2976;49.764;9.796;2023-03-31T10:32:04;9.10;99.90
5901;DHT22;2976;49.764;9.796;2023-03-31T10:34:36;8.90;99.90
5901;DHT22;2976;49.764;9.796;2023-03-31T10:37:05;8.70;99.90
5901;DHT22;2976;49.764;9.796;2023-03-31T10:39:32;8.60;99.90
5901;DHT22;2976;49.764;9.796;2023-03-31T10:41:58;8.50;99.90
5901;DHT22;2976;49.764;9.796;2023-03-31T10:47:04;8.50;99.90
5901;DHT22;2976;49.764;9.796;2023-03-31T10:49:37;8.40;99.90
5901;DHT22;2976;49.764;9.796;2023-03-31T10:52:08;8.40;99.90
5901;DHT22;2976;49.764;9.796;2023-03-31T10:54:45;8.30;99.90
5901;DHT22;2976;49.764;9.796;2023-03-31T10:57:11;8.10;99.90
5901;DHT22;2976;49.764;9.796;2023-03-31T10:59:57;8.10;99.90
5901;DHT22;2976;49.764;9.796;2023-03-31T11:02:48;7.90;99.90
5901;DHT22;2976;49.764;9.796;2023-03-31T11:08:17;7.90;99.90
5901;DHT22;2976;49.764;9.796;2023-03-31T11:10:54;8.10;99.90
5901;DHT22;2976;49.764;9.796;2023-03-31T11:13:47;8.30;99.90
5901;DHT22;2976;49.764;9.796;2023-03-31T11:16:42;8.40;99.90
5901;DHT22;2976;49.764;9.796;2023-03-31T11:30:41;9.20;99.90
5901;DHT22;2976;49.764;9.796;2023-03-31T11:38:56;10.30;99.90
5901;DHT22;2976;49.764;9.796;2023-03-31T11:41:46;10.50;99.90
5901;DHT22;2976;49.764;9.796;2023-03-31T11:44:16;10.60;99.90
5901;DHT22;2976;49.764;9.796;2023-03-31T11:47:02;10.60;99.90
5901;DHT22;2976;49.764;9.796;2023-03-31T11:49:54;10.70;99.90
5901;DHT22;2976;49.764;9.796;2023-03-31T11:52:30;10.60;99.90
5901;DHT22;2976;49.764;9.796;2023-03-31T11:57:34;10.70;99.90
5901;DHT22;2976;49.764;9.796;2023-03-31T12:00:16;10.70;99.90
5901;DHT22;2976;49.764;9.796;2023-03-31T12:05:39;10.30;99.90
5901;DHT22;2976;49.764;9.796;2023-03-31T12:10:53;10.30;99.90
5901;DHT22;2976;49.764;9.796;2023-03-31T12:13:35;10.30;99.90
5901;DHT22;2976;49.764;9.796;2023-03-31T12:16:11;10.50;99.90
5901;DHT22;2976;49.764;9.796;2023-03-31T12:19:07;10.80;99.90
5901;DHT22;2976;49.764;9.796;2023-03-31T12:21:31;11.10;99.90
5901;DHT22;2976;49.764;9.796;2023-03-31T12:23:58;11.30;99.90
5901;DHT22;2976;49.764;9.796;2023-03-31T12:28:58;10.90;99.90
5901;DHT22;2976;49.764;9.796;2023-03-31T12:31:26;10.90;99.90
5901;DHT22;2976;49.764;9.796;2023-03-31T12:33:59;10.90;99.90
5901;DHT22;2976;49.764;9.796;2023-03-31T12:36:32;10.90;99.90
5901;DHT22;2976;49.764;9.796;2023-03-31T12:55:43;11.90;99.90
5901;DHT22;2976;49.764;9.796;2023-03-31T13:08:58;12.10;99.90
5901;DHT22;2976;49.764;9.796;2023-03-31T13:14:23;12.00;99.90
5901;DHT22;2976;49.764;9.796;2023-03-31T13:16:52;12.20;99.90
5901;DHT22;2976;49.764;9.796;2023-03-31T13:19:47;12.40;99.90
5901;DHT22;2976;49.764;9.796;2023-03-31T13:22:29;12.50;99.90
5901;DHT22;2976;49.764;9.796;2023-03-31T13:27:58;12.20;99.90
5901;DHT22;2976;49.764;9.796;2023-03-31T13:41:44;12.60;99.90
5901;DHT22;2976;49.764;9.796;2023-03-31T13:44:39;12.70;99.90
5901;DHT22;2976;49.764;9.796;2023-03-31T13:47:39;12.70;99.90
5901;DHT22;2976;49.764;9.796;2023-03-31T13:50:34;12.80;99.90
5901;DHT22;2976;49.764;9.796;2023-03-31T13:53:38;12.80;99.90
5901;DHT22;2976;49.764;9.796;2023-03-31T14:01:50;12.80;99.90
5901;DHT22;2976;49.764;9.796;2023-03-31T14:07:53;12.80;99.90
5901;DHT22;2976;49.764;9.796;2023-03-31T14:12:48;12.40;99.90
5901;DHT22;2976;49.764;9.796;2023-03-31T14:15:19;12.50;99.90
5901;DHT22;2976;49.764;9.796;2023-03-31T14:17:45;12.60;99.90
5901;DHT22;2976;49.764;9.796;2023-03-31T14:20:21;12.70;99.90
5901;DHT22;2976;49.764;9.796;2023-03-31T14:23:20;12.70;99.90
5901;DHT22;2976;49.764;9.796;2023-03-31T14:34:52;12.40;99.90
5901;DHT22;2976;49.764;9.796;2023-03-31T14:37:22;12.50;99.90
5901;DHT22;2976;49.764;9.796;2023-03-31T14:39:53;12.50;99.90
5901;DHT22;2976;49.764;9.796;2023-03-31T14:42:40;12.40;99.90
5901;DHT22;2976;49.764;9.796;2023-03-31T14:45:22;12.20;99.90
5901;DHT22;2976;49.764;9.796;2023-03-31T14:47:53;12.10;99.90
5901;DHT22;2976;49.764;9.796;2023-03-31T14:50:19;12.00;99.90
5901;DHT22;2976;49.764;9.796;2023-03-31T14:52:46;12.00;99.90
5901;DHT22;2976;49.764;9.796;2023-03-31T14:55:14;11.90;99.90
5901;DHT22;2976;49.764;9.796;2023-03-31T14:57:40;11.90;99.90
5901;DHT22;2976;49.764;9.796;2023-03-31T15:00:13;11.90;99.90
5901;DHT22;2976;49.764;9.796;2023-03-31T15:02:43;11.90;99.90
5901;DHT22;2976;49.764;9.796;2023-03-31T15:05:28;12.00;99.90
5901;DHT22;2976;49.764;9.796;2023-03-31T15:08:06;12.10;99.90
5901;DHT22;2976;49.764;9.796;2023-03-31T15:10:53;12.00;99.90
5901;DHT22;2976;49.764;9.796;2023-03-31T15:13:44;12.10;99.90
5901;DHT22;2976;49.764;9.796;2023-03-31T15:19:04;11.90;99.90
5901;DHT22;2976;49.764;9.796;2023-03-31T15:21:32;11.90;99.90
5901;DHT22;2976;49.764;9.796;2023-03-31T15:24:03;12.00;99.90
5901;DHT22;2976;49.764;9.796;2023-03-31T15:26:38;12.20;99.90
5901;DHT22;2976;49.764;9.796;2023-03-31T15:29:21;12.10;99.90
5901;DHT22;2976;49.764;9.796;2023-03-31T15:31:49;12.00;99.90
5901;DHT22;2976;49.764;9.796;2023-03-31T15:34:25;12.10;99.90
5901;DHT22;2976;49.764;9.796;2023-03-31T15:36:55;12.10;99.90
5901;DHT22;2976;49.764;9.796;2023-03-31T15:39:23;12.00;99.90
5901;DHT22;2976;49.764;9.796;2023-03-31T15:41:51;12.00;99.90
5901;DHT22;2976;49.764;9.796;2023-03-31T15:44:45;12.10;99.90
5901;DHT22;2976;49.764;9.796;2023-03-31T15:47:22;12.10;99.90
5901;DHT22;2976;49.764;9.796;2023-03-31T15:52:34;12.00;99.90
5901;DHT22;2976;49.764;9.796;2023-03-31T15:55:01;11.70;99.90
5901;DHT22;2976;49.764;9.796;2023-03-31T15:57:32;11.70;99.90
5901;DHT22;2976;49.764;9.796;2023-03-31T15:59:58;11.60;99.90
5901;DHT22;2976;49.764;9.796;2023-03-31T16:02:59;11.50;99.90
5901;DHT22;2976;49.764;9.796;2023-03-31T16:07:49;11.30;99.90
5901;DHT22;2976;49.764;9.796;2023-03-31T16:10:18;11.20;99.90
5901;DHT22;2976;49.764;9.796;2023-03-31T16:12:58;11.20;99.90
5901;DHT22;2976;49.764;9.796;2023-03-31T16:15:39;11.10;99.90
5901;DHT22;2976;49.764;9.796;2023-03-31T16:18:14;11.10;99.90
5901;DHT22;2976;49.764;9.796;2023-03-31T16:20:50;11.00;99.90
5901;DHT22;2976;49.764;9.796;2023-03-31T16:23:26;11.00;99.90
5901;DHT22;2976;49.764;9.796;2023-03-31T16:25:53;10.80;99.90
5901;DHT22;2976;49.764;9.796;2023-03-31T16:28:32;10.40;99.90
5901;DHT22;2976;49.764;9.796;2023-03-31T16:30:58;9.90;99.90
5901;DHT22;2976;49.764;9.796;2023-03-31T16:33:27;9.50;99.90
5901;DHT22;2976;49.764;9.796;2023-03-31T16:35:54;9.40;99.90
5901;DHT22;2976;49.764;9.796;2023-03-31T16:38:24;9.40;99.90
5901;DHT22;2976;49.764;9.796;2023-03-31T16:40:52;9.50;99.90
5901;DHT22;2976;49.764;9.796;2023-03-31T16:43:20;9.60;99.90
5901;DHT22;2976;49.764;9.796;2023-03-31T16:45:50;9.80;99.90
5901;DHT22;2976;49.764;9.796;2023-03-31T16:48:18;9.90;99.90
5901;DHT22;2976;49.764;9.796;2023-03-31T16:50:45;10.00;99.90
5901;DHT22;2976;49.764;9.796;2023-03-31T16:53:12;10.00;99.90
5901;DHT22;2976;49.764;9.796;2023-03-31T16:55:38;10.00;99.90
5901;DHT22;2976;49.764;9.796;2023-03-31T16:58:03;10.00;99.90
5901;DHT22;2976;49.764;9.796;2023-03-31T17:00:30;9.90;99.90
5901;DHT22;2976;49.764;9.796;2023-03-31T17:02:56;9.80;99.90
5901;DHT22;2976;49.764;9.796;2023-03-31T17:05:23;9.80;99.90
5901;DHT22;2976;49.764;9.796;2023-03-31T17:07:50;9.80;99.90
5901;DHT22;2976;49.764;9.796;2023-03-31T17:10:15;9.80;99.90
5901;DHT22;2976;49.764;9.796;2023-03-31T17:12:41;9.70;99.90
5901;DHT22;2976;49.764;9.796;2023-03-31T17:15:07;9.70;99.90
5901;DHT22;2976;49.764;9.796;2023-03-31T17:17:33;9.70;99.90
5901;DHT22;2976;49.764;9.796;2023-03-31T17:19:59;9.60;99.90
5901;DHT22;2976;49.764;9.796;2023-03-31T17:22:25;9.60;99.90
5901;DHT22;2976;49.764;9.796;2023-03-31T17:24:50;9.60;99.90
5901;DHT22;2976;49.764;9.796;2023-03-31T17:27:23;9.50;99.90
5901;DHT22;2976;49.764;9.796;2023-03-31T17:29:49;9.50;99.90
5901;DHT22;2976;49.764;9.796;2023-03-31T17:32:14;9.50;99.90
5901;DHT22;2976;49.764;9.796;2023-03-31T17:34:40;9.50;99.90
5901;DHT22;2976;49.764;9.796;2023-03-31T17:37:06;9.50;99.90
5901;DHT22;2976;49.764;9.796;2023-03-31T17:39:32;9.50;99.90
5901;DHT22;2976;49.764;9.796;2023-03-31T17:41:57;9.60;99.90
5901;DHT22;2976;49.764;9.796;2023-03-31T17:44:23;9.60;99.90
5901;DHT22;2976;49.764;9.796;2023-03-31T17:46:49;9.70;99.90
5901;DHT22;2976;49.764;9.796;2023-03-31T17:49:15;9.70;99.90
5901;DHT22;2976;49.764;9.796;2023-03-31T17:51:42;9.70;99.90
5901;DHT22;2976;49.764;9.796;2023-03-31T17:54:09;9.70;99.90
5901;DHT22;2976;49.764;9.796;2023-03-31T17:56:35;9.70;99.90
5901;DHT22;2976;49.764;9.796;2023-03-31T17:59:02;9.70;99.90
5901;DHT22;2976;49.764;9.796;2023-03-31T18:01:28;9.70;99.90
5901;DHT22;2976;49.764;9.796;2023-03-31T18:03:55;9.70;99.90
5901;DHT22;2976;49.764;9.796;2023-03-31T18:06:20;9.70;99.90
5901;DHT22;2976;49.764;9.796;2023-03-31T18:08:46;9.70;99.90
5901;DHT22;2976;49.764;9.796;2023-03-31T18:11:12;9.60;99.90
5901;DHT22;2976;49.764;9.796;2023-03-31T18:13:38;9.50;99.90
5901;DHT22;2976;49.764;9.796;2023-03-31T18:16:05;9.50;99.90
5901;DHT22;2976;49.764;9.796;2023-03-31T18:18:34;9.50;99.90
5901;DHT22;2976;49.764;9.796;2023-03-31T18:21:04;9.40;99.90
5901;DHT22;2976;49.764;9.796;2023-03-31T18:23:30;9.40;99.90
5901;DHT22;2976;49.764;9.796;2023-03-31T18:25:56;9.40;99.90
5901;DHT22;2976;49.764;9.796;2023-03-31T18:28:22;9.40;99.90
5901;DHT22;2976;49.764;9.796;2023-03-31T18:30:47;9.40;99.90
5901;DHT22;2976;49.764;9.796;2023-03-31T18:33:13;9.50;99.90
5901;DHT22;2976;49.764;9.796;2023-03-31T18:35:39;9.40;99.90
5901;DHT22;2976;49.764;9.796;2023-03-31T18:38:04;9.50;99.90
5901;DHT22;2976;49.764;9.796;2023-03-31T18:40:30;9.50;99.90
5901;DHT22;2976;49.764;9.796;2023-03-31T18:42:55;9.50;99.90
5901;DHT22;2976;49.764;9.796;2023-03-31T18:45:21;9.50;99.90
5901;DHT22;2976;49.764;9.796;2023-03-31T18:47:47;9.50;99.90
5901;DHT22;2976;49.764;9.796;2023-03-31T18:50:13;9.50;99.90
5901;DHT22;2976;49.764;9.796;2023-03-31T18:52:39;9.50;99.90
5901;DHT22;2976;49.764;9.796;2023-03-31T18:55:05;9.60;99.90
5901;DHT22;2976;49.764;9.796;2023-03-31T18:57:31;9.60;99.90
5901;DHT22;2976;49.764;9.796;2023-03-31T18:59:57;9.40;99.90
5901;DHT22;2976;49.764;9.796;2023-03-31T19:02:22;9.30;99.90
5901;DHT22;2976;49.764;9.796;2023-03-31T19:04:48;9.30;99.90
5901;DHT22;2976;49.764;9.796;2023-03-31T19:07:14;9.20;99.90
5901;DHT22;2976;49.764;9.796;2023-03-31T19:09:40;9.20;99.90
5901;DHT22;2976;49.764;9.796;2023-03-31T19:12:06;9.30;99.90